createdAt,value
2022-12-09T00:00:11.860Z,38.40
2022-12-09T00:04:15.081Z,35.27
2022-12-09T00:08:15.452Z,34.13
2022-12-09T00:12:15.606Z,33.07
2022-12-09T00:16:17.666Z,30.77
2022-12-09T00:20:20.386Z,34.67
2022-12-09T00:24:20.477Z,33.50
2022-12-09T00:28:20.807Z,36.23
2022-12-09T00:32:21.243Z,37.87
2022-12-09T00:36:26.226Z,36.27
2022-12-09T00:40:26.566Z,39.30
2022-12-09T00:44:26.711Z,35.13
2022-12-09T00:48:27.313Z,35.30
2022-12-09T00:52:30.049Z,35.77
2022-12-09T00:56:33.257Z,35.47
2022-12-09T01:00:34.076Z,36.20
2022-12-09T01:04:34.449Z,32.33
2022-12-09T01:08:39.322Z,41.83
2022-12-09T01:12:39.802Z,40.47
2022-12-09T01:16:42.451Z,35.27
2022-12-09T01:20:43.425Z,36.00
2022-12-09T01:24:47.979Z,37.43
2022-12-09T01:28:52.522Z,41.33
2022-12-09T01:32:53.311Z,37.83
2022-12-09T01:36:53.955Z,44.93
2022-12-09T01:40:56.698Z,41.80
2022-12-09T01:45:40.748Z,39.77
2022-12-09T01:49:48.284Z,44.50
2022-12-09T01:53:53.939Z,51.07
2022-12-09T01:57:57.122Z,44.03
2022-12-09T02:02:03.408Z,50.77
2022-12-09T02:06:03.780Z,46.03
2022-12-09T02:10:08.946Z,61.73
2022-12-09T02:14:23.780Z,110.63
2022-12-09T02:18:39.138Z,117.37
2022-12-09T02:22:46.092Z,38.07
2022-12-09T02:26:56.337Z,33.93
2022-12-09T02:31:20.481Z,291.73
2022-12-09T02:35:30.459Z,286.27
2022-12-09T02:39:39.377Z,146.13
2022-12-09T02:43:50.353Z,329.10
2022-12-09T02:47:58.228Z,55.23
2022-12-09T02:52:02.484Z,35.07
2022-12-09T02:56:06.818Z,39.93
2022-12-09T03:00:11.296Z,65.13
2022-12-09T03:04:19.899Z,57.33
2022-12-09T03:08:38.973Z,50.50
2022-12-09T03:12:43.900Z,48.93
2022-12-09T03:16:52.607Z,106.13
2022-12-09T03:20:54.261Z,66.80
2022-12-09T03:25:04.289Z,160.37
2022-12-09T03:29:10.054Z,307.30
2022-12-09T03:33:12.427Z,130.80
2022-12-09T03:37:18.339Z,86.73
2022-12-09T03:41:30.996Z,382.07
2022-12-09T03:45:31.858Z,103.80
2022-12-09T03:49:32.578Z,88.53
2022-12-09T03:53:41.450Z,100.63
2022-12-09T03:57:48.573Z,98.03
2022-12-09T04:01:50.206Z,63.23
2022-12-09T04:05:50.484Z,63.13
2022-12-09T04:09:50.850Z,68.23
2022-12-09T04:13:53.558Z,51.67
2022-12-09T04:17:54.053Z,69.87
2022-12-09T04:21:54.374Z,52.37
2022-12-09T04:25:54.819Z,68.93
2022-12-09T04:29:57.952Z,53.03
2022-12-09T04:33:59.835Z,69.43
2022-12-09T04:38:02.776Z,63.83
2022-12-09T04:42:03.257Z,50.17
2022-12-09T04:46:09.005Z,50.47
2022-12-09T04:50:11.364Z,47.10
2022-12-09T04:54:16.739Z,49.40
2022-12-09T04:58:16.881Z,45.40
2022-12-09T05:02:19.854Z,44.43
2022-12-09T05:06:22.083Z,47.10
2022-12-09T05:10:22.838Z,50.67
2022-12-09T05:14:23.198Z,47.97
2022-12-09T05:18:26.022Z,47.03
2022-12-09T05:22:27.169Z,47.07
2022-12-09T05:26:27.759Z,51.93
2022-12-09T05:30:28.300Z,40.97
2022-12-09T05:34:32.035Z,45.47
2022-12-09T05:38:33.537Z,47.23
2022-12-09T05:42:40.966Z,41.63
2022-12-09T05:46:41.953Z,44.00
2022-12-09T05:50:45.024Z,38.83
2022-12-09T05:54:45.426Z,40.33
2022-12-09T05:58:46.221Z,43.23
2022-12-09T06:02:46.984Z,37.30
2022-12-09T06:06:50.040Z,43.97
2022-12-09T06:10:50.399Z,40.70
2022-12-09T06:14:51.006Z,40.50
2022-12-09T06:18:52.592Z,41.13
2022-12-09T06:22:55.827Z,44.60
2022-12-09T06:26:56.856Z,41.60
2022-12-09T06:31:00.019Z,40.10
2022-12-09T06:35:01.311Z,35.37
2022-12-09T06:39:10.564Z,38.83
2022-12-09T06:43:11.302Z,42.03
2022-12-09T06:47:11.883Z,36.70
2022-12-09T06:51:12.810Z,34.77
2022-12-09T06:55:16.855Z,34.80
2022-12-09T06:59:17.505Z,37.90
2022-12-09T07:03:18.051Z,38.03
2022-12-09T07:07:19.120Z,37.07
2022-12-09T07:11:22.720Z,39.03
2022-12-09T07:15:23.524Z,41.43
2022-12-09T07:19:26.312Z,41.40
2022-12-09T07:23:27.191Z,39.20
2022-12-09T07:27:29.933Z,43.90
2022-12-09T07:31:32.018Z,41.33
2022-12-09T07:35:33.045Z,42.07
2022-12-09T07:39:33.631Z,41.97
2022-12-09T07:43:36.760Z,38.37
2022-12-09T07:47:37.475Z,35.57
2022-12-09T07:51:38.223Z,37.27
2022-12-09T07:55:38.647Z,38.43
2022-12-09T07:59:41.592Z,35.93
2022-12-09T08:03:43.477Z,37.47
2022-12-09T08:07:44.710Z,36.17
2022-12-09T08:11:46.205Z,33.40
2022-12-09T08:15:49.421Z,34.13
2022-12-09T08:19:50.159Z,30.03
2022-12-09T08:23:51.526Z,31.73
2022-12-09T08:27:52.070Z,28.87
2022-12-09T08:31:55.390Z,25.27
2022-12-09T08:35:56.424Z,24.93
2022-12-09T08:39:56.619Z,23.83
2022-12-09T08:43:57.022Z,28.37
2022-12-09T08:48:00.320Z,22.17
2022-12-09T08:52:01.174Z,21.60
2022-12-09T08:56:02.034Z,19.13
2022-12-09T09:00:02.224Z,19.80
2022-12-09T09:04:10.667Z,19.00
2022-12-09T09:08:11.155Z,22.13
2022-12-09T09:12:11.502Z,19.57
2022-12-09T09:16:14.942Z,19.13
2022-12-09T09:20:18.425Z,19.13
2022-12-09T09:24:22.937Z,20.13
2022-12-09T09:28:28.978Z,19.37
2022-12-09T09:32:32.885Z,21.83
2022-12-09T09:36:36.856Z,16.67
2022-12-09T09:40:37.427Z,17.67
2022-12-09T09:44:43.255Z,17.50
2022-12-09T09:48:43.937Z,16.33
2022-12-09T09:52:46.779Z,16.33
2022-12-09T09:56:56.704Z,16.03
2022-12-09T10:01:06.622Z,15.63
2022-12-09T10:05:23.123Z,15.57
2022-12-09T10:09:39.790Z,15.47
2022-12-09T10:13:56.282Z,16.50
2022-12-09T10:18:14.524Z,17.50
2022-12-09T10:22:19.538Z,18.60
2022-12-09T10:26:30.299Z,16.23
2022-12-09T10:30:37.271Z,17.03
2022-12-09T10:34:42.609Z,16.77
2022-12-09T10:38:46.034Z,16.20
2022-12-09T10:43:05.584Z,15.43
2022-12-09T10:47:08.254Z,16.57
2022-12-09T10:51:17.605Z,14.73
2022-12-09T10:55:32.876Z,15.70
2022-12-09T10:59:38.136Z,13.37
2022-12-09T11:03:43.330Z,15.13
2022-12-09T11:07:51.315Z,14.40
2022-12-09T11:11:53.580Z,14.40
2022-12-09T11:16:01.621Z,14.00
2022-12-09T11:20:23.296Z,13.97
2022-12-09T11:24:25.456Z,15.83
2022-12-09T11:28:31.988Z,11.87
2022-12-09T11:32:35.638Z,12.30
2022-12-09T11:36:43.988Z,11.60
2022-12-09T11:40:44.644Z,16.00
2022-12-09T11:44:53.521Z,11.17
2022-12-09T11:49:03.448Z,12.80
2022-12-09T11:53:26.786Z,10.27
2022-12-09T11:57:37.421Z,10.97
2022-12-09T12:01:51.245Z,10.10
2022-12-09T12:05:58.788Z,10.03
2022-12-09T12:10:01.396Z,10.30
2022-12-09T12:14:09.384Z,10.37
2022-12-09T12:18:25.731Z,9.53
2022-12-09T12:23:08.402Z,9.63
2022-12-09T12:27:28.028Z,9.57
2022-12-09T12:32:07.263Z,10.10
2022-12-09T12:36:19.557Z,8.83
2022-12-09T12:40:39.422Z,9.43
2022-12-09T12:45:05.243Z,9.73
2022-12-09T12:49:42.253Z,9.20
2022-12-09T12:53:54.037Z,8.90
2022-12-09T12:58:09.646Z,12.10
2022-12-09T13:02:31.424Z,10.00
2022-12-09T13:06:43.910Z,11.73
2022-12-09T13:10:48.568Z,13.70
2022-12-09T13:14:56.855Z,12.90
2022-12-09T13:19:04.252Z,11.00
2022-12-09T13:23:14.915Z,12.93
2022-12-09T13:27:26.261Z,11.43
2022-12-09T13:31:33.602Z,12.07
2022-12-09T13:35:45.990Z,10.47
2022-12-09T13:40:01.243Z,11.00
2022-12-09T13:44:14.525Z,11.03
2022-12-09T13:48:47.332Z,16.00
2022-12-09T13:52:53.698Z,12.47
2022-12-09T13:57:21.099Z,12.00
2022-12-09T14:01:31.972Z,14.07
2022-12-09T14:05:39.569Z,15.83
2022-12-09T14:09:51.029Z,10.07
2022-12-09T14:13:51.908Z,10.37
2022-12-09T14:18:07.027Z,12.20
2022-12-09T14:22:41.932Z,10.70
2022-12-09T14:26:48.850Z,9.07
2022-12-09T14:30:54.991Z,12.73
2022-12-09T14:35:32.896Z,12.70
2022-12-09T14:39:47.722Z,12.20
2022-12-09T14:44:06.150Z,14.27
2022-12-09T14:48:14.055Z,12.63
2022-12-09T14:52:23.322Z,12.37
2022-12-09T14:56:29.118Z,14.00
2022-12-09T15:00:34.902Z,13.53
2022-12-09T15:04:39.407Z,16.80
2022-12-09T15:08:43.016Z,15.07
2022-12-09T15:12:50.060Z,18.13
2022-12-09T15:16:51.128Z,19.87
2022-12-09T15:20:55.675Z,15.57
2022-12-09T15:24:56.871Z,15.03
2022-12-09T15:29:05.257Z,17.73
2022-12-09T15:33:06.562Z,17.67
2022-12-09T15:37:09.371Z,14.10
2022-12-09T15:41:37.358Z,16.53
2022-12-09T15:45:46.006Z,18.73
2022-12-09T15:49:54.607Z,16.23
2022-12-09T15:54:01.271Z,15.77
2022-12-09T15:58:06.047Z,29.97
2022-12-09T16:02:12.761Z,18.07
2022-12-09T16:06:13.678Z,19.70
2022-12-09T16:10:18.099Z,24.57
2022-12-09T16:14:20.510Z,22.57
2022-12-09T16:18:27.747Z,19.80
2022-12-09T16:22:32.983Z,22.00
2022-12-09T16:26:37.906Z,21.80
2022-12-09T16:30:49.996Z,18.27
2022-12-09T16:34:55.490Z,22.60
2022-12-09T16:39:48.230Z,18.07
2022-12-09T16:44:21.465Z,16.50
2022-12-09T16:48:23.992Z,19.80
2022-12-09T16:52:27.592Z,20.07
2022-12-09T16:56:34.738Z,22.47
2022-12-09T17:00:35.010Z,19.47
2022-12-09T17:04:35.119Z,22.33
2022-12-09T17:08:37.352Z,20.07
2022-12-09T17:12:40.054Z,21.83
2022-12-09T17:16:40.915Z,22.30
2022-12-09T17:20:41.605Z,18.03
2022-12-09T17:24:42.502Z,33.63
2022-12-09T17:28:46.735Z,22.07
2022-12-09T17:32:46.962Z,20.80
2022-12-09T17:36:48.012Z,29.87
2022-12-09T17:40:48.396Z,22.43
2022-12-09T17:44:51.073Z,20.67
2022-12-09T17:48:51.308Z,22.53
2022-12-09T17:52:51.396Z,24.97
2022-12-09T17:56:51.530Z,27.10
2022-12-09T18:00:54.286Z,20.40
2022-12-09T18:04:54.645Z,19.97
2022-12-09T18:08:55.115Z,38.20
2022-12-09T18:12:55.203Z,21.87
2022-12-09T18:16:58.077Z,21.67
2022-12-09T18:21:03.015Z,18.83
2022-12-09T18:25:03.105Z,21.27
2022-12-09T18:29:03.424Z,21.60
2022-12-09T18:33:06.380Z,20.53
2022-12-09T18:37:06.706Z,21.83
2022-12-09T18:41:07.280Z,24.03
2022-12-09T18:45:08.748Z,23.20
2022-12-09T18:49:15.723Z,20.53
2022-12-09T18:53:15.804Z,28.07
2022-12-09T18:57:15.948Z,22.33
2022-12-09T19:01:23.996Z,21.30
2022-12-09T19:05:26.724Z,23.47
2022-12-09T19:09:31.843Z,19.40
2022-12-09T19:13:33.139Z,15.63
2022-12-09T19:17:33.441Z,16.20
2022-12-09T19:21:36.075Z,18.37
2022-12-09T19:25:36.179Z,16.50
2022-12-09T19:29:36.258Z,17.90
2022-12-09T19:33:36.377Z,18.17
2022-12-09T19:37:39.072Z,17.77
2022-12-09T19:41:40.469Z,16.93
2022-12-09T19:45:40.668Z,17.93
2022-12-09T19:49:42.154Z,16.03
2022-12-09T19:53:46.509Z,17.83
2022-12-09T19:57:46.574Z,18.50
2022-12-09T20:01:48.514Z,19.43
2022-12-09T20:05:54.139Z,19.57
2022-12-09T20:09:56.889Z,19.03
2022-12-09T20:13:59.537Z,20.10
2022-12-09T20:17:59.662Z,19.97
2022-12-09T20:21:59.823Z,19.23
2022-12-09T20:26:10.402Z,25.30
2022-12-09T20:30:12.893Z,22.53
2022-12-09T20:34:18.088Z,21.27
2022-12-09T20:38:18.223Z,41.23
2022-12-09T20:42:20.887Z,22.37
2022-12-09T20:46:24.728Z,27.10
2022-12-09T20:50:25.044Z,23.27
2022-12-09T20:54:25.992Z,27.30
2022-12-09T20:58:29.158Z,33.57
2022-12-09T21:02:29.467Z,24.17
2022-12-09T21:06:33.142Z,24.87
2022-12-09T21:10:33.447Z,32.80
2022-12-09T21:14:37.085Z,22.57
2022-12-09T21:18:39.541Z,25.17
2022-12-09T21:22:40.026Z,35.10
2022-12-09T21:26:41.165Z,25.40
2022-12-09T21:30:44.121Z,27.10
2022-12-09T21:34:44.672Z,26.43
2022-12-09T21:38:45.939Z,25.60
2022-12-09T21:42:46.359Z,27.17
2022-12-09T21:46:49.270Z,26.33
2022-12-09T21:50:57.470Z,25.27
2022-12-09T21:54:58.204Z,26.63
2022-12-09T21:59:00.827Z,27.97
2022-12-09T22:03:03.779Z,28.17
2022-12-09T22:07:03.854Z,28.07
2022-12-09T22:11:04.090Z,31.17
2022-12-09T22:15:04.586Z,29.00
2022-12-09T22:19:10.943Z,29.23
2022-12-09T22:23:11.437Z,28.90
2022-12-09T22:27:11.811Z,29.77
2022-12-09T22:31:13.668Z,28.20
2022-12-09T22:35:16.916Z,33.00
2022-12-09T22:39:19.228Z,30.00
2022-12-09T22:43:19.355Z,32.13
2022-12-09T22:47:19.601Z,30.03
2022-12-09T22:51:26.305Z,33.07
2022-12-09T22:55:26.457Z,29.17
2022-12-09T22:59:26.651Z,31.17
2022-12-09T23:03:27.429Z,29.67
2022-12-09T23:07:30.637Z,32.53
2022-12-09T23:11:31.714Z,32.67
2022-12-09T23:15:31.923Z,31.57
2022-12-09T23:19:32.000Z,33.73
2022-12-09T23:23:35.559Z,31.93
2022-12-09T23:27:35.629Z,32.17
2022-12-09T23:31:39.278Z,31.47
2022-12-09T23:35:41.173Z,32.20
2022-12-09T23:39:44.206Z,34.53
2022-12-09T23:43:45.073Z,28.80
2022-12-09T23:47:46.152Z,28.97
2022-12-09T23:51:46.692Z,33.23
2022-12-09T23:55:49.337Z,35.30
2022-12-09T23:59:49.923Z,33.60
